sensor_id;sensor_type;location;lat;lon;timestamp;P1;durP1;ratioP1;P2;durP2;ratioP2
18013;SDS011;9132;47.946;10.394;2022-09-01T00:01:38;17.13;;;15.53;;
18013;SDS011;9132;47.946;10.394;2022-09-01T00:04:06;16.80;;;15.10;;
18013;SDS011;9132;47.946;10.394;2022-09-01T00:06:34;17.43;;;15.63;;
18013;SDS011;9132;47.946;10.394;2022-09-01T00:09:06;15.90;;;14.20;;
18013;SDS011;9132;47.946;10.394;2022-09-01T00:11:32;15.57;;;14.13;;
18013;SDS011;9132;47.946;10.394;2022-09-01T00:13:59;15.30;;;13.90;;
18013;SDS011;9132;47.946;10.394;2022-09-01T00:16:26;14.33;;;12.83;;
18013;SDS011;9132;47.946;10.394;2022-09-01T00:18:53;14.47;;;12.97;;
18013;SDS011;9132;47.946;10.394;2022-09-01T00:21:21;14.97;;;13.30;;
18013;SDS011;9132;47.946;10.394;2022-09-01T00:23:49;14.13;;;12.83;;
18013;SDS011;9132;47.946;10.394;2022-09-01T00:26:16;14.20;;;12.80;;
18013;SDS011;9132;47.946;10.394;2022-09-01T00:28:43;13.13;;;11.87;;
18013;SDS011;9132;47.946;10.394;2022-09-01T00:31:09;13.80;;;12.37;;
18013;SDS011;9132;47.946;10.394;2022-09-01T00:33:36;13.30;;;12.10;;
18013;SDS011;9132;47.946;10.394;2022-09-01T00:36:03;14.53;;;13.03;;
18013;SDS011;9132;47.946;10.394;2022-09-01T00:38:30;14.00;;;12.53;;
18013;SDS011;9132;47.946;10.394;2022-09-01T00:40:57;13.60;;;12.13;;
18013;SDS011;9132;47.946;10.394;2022-09-01T00:43:35;14.37;;;12.70;;
18013;SDS011;9132;47.946;10.394;2022-09-01T00:46:02;13.97;;;12.63;;
18013;SDS011;9132;47.946;10.394;2022-09-01T00:48:28;16.00;;;12.37;;
18013;SDS011;9132;47.946;10.394;2022-09-01T00:50:54;15.63;;;12.37;;
18013;SDS011;9132;47.946;10.394;2022-09-01T00:53:21;13.50;;;12.13;;
18013;SDS011;9132;47.946;10.394;2022-09-01T00:55:47;14.90;;;13.40;;
18013;SDS011;9132;47.946;10.394;2022-09-01T00:58:14;15.97;;;14.10;;
18013;SDS011;9132;47.946;10.394;2022-09-01T01:00:41;15.70;;;14.17;;
18013;SDS011;9132;47.946;10.394;2022-09-01T01:03:08;16.07;;;14.53;;
18013;SDS011;9132;47.946;10.394;2022-09-01T01:05:36;16.83;;;14.97;;
18013;SDS011;9132;47.946;10.394;2022-09-01T01:08:04;17.07;;;15.07;;
18013;SDS011;9132;47.946;10.394;2022-09-01T01:10:32;16.00;;;14.50;;
18013;SDS011;9132;47.946;10.394;2022-09-01T01:12:59;18.10;;;15.27;;
18013;SDS011;9132;47.946;10.394;2022-09-01T01:15:28;17.27;;;15.47;;
18013;SDS011;9132;47.946;10.394;2022-09-01T01:17:56;16.50;;;14.83;;
18013;SDS011;9132;47.946;10.394;2022-09-01T01:20:24;17.00;;;14.90;;
18013;SDS011;9132;47.946;10.394;2022-09-01T01:23:11;16.87;;;15.00;;
18013;SDS011;9132;47.946;10.394;2022-09-01T01:25:43;16.90;;;15.03;;
18013;SDS011;9132;47.946;10.394;2022-09-01T01:28:13;17.20;;;15.50;;
18013;SDS011;9132;47.946;10.394;2022-09-01T01:30:41;16.70;;;15.07;;
18013;SDS011;9132;47.946;10.394;2022-09-01T01:33:08;16.77;;;15.00;;
18013;SDS011;9132;47.946;10.394;2022-09-01T01:35:34;17.17;;;15.20;;
18013;SDS011;9132;47.946;10.394;2022-09-01T01:38:02;16.87;;;15.17;;
18013;SDS011;9132;47.946;10.394;2022-09-01T01:40:32;17.77;;;15.70;;
18013;SDS011;9132;47.946;10.394;2022-09-01T01:42:59;18.37;;;16.47;;
18013;SDS011;9132;47.946;10.394;2022-09-01T01:45:26;17.30;;;15.57;;
18013;SDS011;9132;47.946;10.394;2022-09-01T01:47:53;17.73;;;16.03;;
18013;SDS011;9132;47.946;10.394;2022-09-01T01:50:20;16.20;;;14.67;;
18013;SDS011;9132;47.946;10.394;2022-09-01T01:52:46;17.47;;;15.67;;
18013;SDS011;9132;47.946;10.394;2022-09-01T01:55:13;16.53;;;14.93;;
18013;SDS011;9132;47.946;10.394;2022-09-01T01:57:43;16.97;;;15.07;;
18013;SDS011;9132;47.946;10.394;2022-09-01T02:00:14;16.60;;;14.90;;
18013;SDS011;9132;47.946;10.394;2022-09-01T02:02:43;16.60;;;14.93;;
18013;SDS011;9132;47.946;10.394;2022-09-01T02:05:11;16.50;;;14.80;;
18013;SDS011;9132;47.946;10.394;2022-09-01T02:07:44;16.80;;;15.20;;
18013;SDS011;9132;47.946;10.394;2022-09-01T02:10:11;16.00;;;14.47;;
18013;SDS011;9132;47.946;10.394;2022-09-01T02:12:38;17.10;;;15.37;;
18013;SDS011;9132;47.946;10.394;2022-09-01T02:15:06;16.63;;;14.93;;
18013;SDS011;9132;47.946;10.394;2022-09-01T02:17:34;16.77;;;14.33;;
18013;SDS011;9132;47.946;10.394;2022-09-01T02:20:02;16.60;;;15.00;;
18013;SDS011;9132;47.946;10.394;2022-09-01T02:22:28;17.03;;;15.30;;
18013;SDS011;9132;47.946;10.394;2022-09-01T02:24:54;17.50;;;15.80;;
18013;SDS011;9132;47.946;10.394;2022-09-01T02:27:21;17.40;;;15.77;;
18013;SDS011;9132;47.946;10.394;2022-09-01T02:29:48;17.30;;;15.57;;
18013;SDS011;9132;47.946;10.394;2022-09-01T02:32:19;16.63;;;14.93;;
18013;SDS011;9132;47.946;10.394;2022-09-01T02:34:47;18.10;;;16.30;;
18013;SDS011;9132;47.946;10.394;2022-09-01T02:37:18;18.27;;;16.37;;
18013;SDS011;9132;47.946;10.394;2022-09-01T02:39:45;18.10;;;16.27;;
18013;SDS011;9132;47.946;10.394;2022-09-01T02:42:12;16.53;;;15.03;;
18013;SDS011;9132;47.946;10.394;2022-09-01T02:44:40;18.20;;;16.40;;
18013;SDS011;9132;47.946;10.394;2022-09-01T02:47:07;17.73;;;15.93;;
18013;SDS011;9132;47.946;10.394;2022-09-01T02:49:34;18.30;;;16.60;;
18013;SDS011;9132;47.946;10.394;2022-09-01T02:52:04;17.90;;;16.10;;
18013;SDS011;9132;47.946;10.394;2022-09-01T02:54:30;18.00;;;16.17;;
18013;SDS011;9132;47.946;10.394;2022-09-01T02:56:57;18.70;;;16.83;;
18013;SDS011;9132;47.946;10.394;2022-09-01T02:59:24;18.33;;;16.43;;
18013;SDS011;9132;47.946;10.394;2022-09-01T03:01:51;19.03;;;17.17;;
18013;SDS011;9132;47.946;10.394;2022-09-01T03:04:19;18.93;;;16.53;;
18013;SDS011;9132;47.946;10.394;2022-09-01T03:06:46;17.77;;;15.97;;
18013;SDS011;9132;47.946;10.394;2022-09-01T03:09:16;17.13;;;15.53;;
18013;SDS011;9132;47.946;10.394;2022-09-01T03:11:44;16.97;;;15.37;;
18013;SDS011;9132;47.946;10.394;2022-09-01T03:14:11;17.33;;;15.63;;
18013;SDS011;9132;47.946;10.394;2022-09-01T03:16:38;18.40;;;16.37;;
18013;SDS011;9132;47.946;10.394;2022-09-01T03:19:05;17.17;;;15.47;;
18013;SDS011;9132;47.946;10.394;2022-09-01T03:21:33;16.90;;;15.13;;
18013;SDS011;9132;47.946;10.394;2022-09-01T03:23:59;18.10;;;16.20;;
18013;SDS011;9132;47.946;10.394;2022-09-01T03:26:29;17.17;;;15.37;;
18013;SDS011;9132;47.946;10.394;2022-09-01T03:28:56;15.80;;;14.20;;
18013;SDS011;9132;47.946;10.394;2022-09-01T03:31:23;16.93;;;14.73;;
18013;SDS011;9132;47.946;10.394;2022-09-01T03:33:51;16.67;;;15.00;;
18013;SDS011;9132;47.946;10.394;2022-09-01T03:36:18;17.20;;;15.40;;
18013;SDS011;9132;47.946;10.394;2022-09-01T03:38:44;16.90;;;15.13;;
18013;SDS011;9132;47.946;10.394;2022-09-01T03:41:12;16.97;;;15.27;;
18013;SDS011;9132;47.946;10.394;2022-09-01T03:43:42;16.53;;;14.90;;
18013;SDS011;9132;47.946;10.394;2022-09-01T03:46:08;16.60;;;14.83;;
18013;SDS011;9132;47.946;10.394;2022-09-01T03:48:42;16.97;;;15.20;;
18013;SDS011;9132;47.946;10.394;2022-09-01T03:51:08;17.90;;;16.10;;
18013;SDS011;9132;47.946;10.394;2022-09-01T03:53:38;16.33;;;14.70;;
18013;SDS011;9132;47.946;10.394;2022-09-01T03:56:05;16.73;;;15.13;;
18013;SDS011;9132;47.946;10.394;2022-09-01T03:58:32;16.50;;;14.83;;
18013;SDS011;9132;47.946;10.394;2022-09-01T04:01:00;17.23;;;15.43;;
18013;SDS011;9132;47.946;10.394;2022-09-01T04:03:27;16.97;;;15.27;;
18013;SDS011;9132;47.946;10.394;2022-09-01T04:05:56;17.87;;;16.00;;
18013;SDS011;9132;47.946;10.394;2022-09-01T04:08:22;16.40;;;14.70;;
18013;SDS011;9132;47.946;10.394;2022-09-01T04:10:56;16.43;;;14.67;;
18013;SDS011;9132;47.946;10.394;2022-09-01T04:13:23;16.93;;;15.23;;
18013;SDS011;9132;47.946;10.394;2022-09-01T04:15:52;17.47;;;15.67;;
18013;SDS011;9132;47.946;10.394;2022-09-01T04:18:21;17.00;;;15.30;;
18013;SDS011;9132;47.946;10.394;2022-09-01T04:20:47;17.03;;;15.33;;
18013;SDS011;9132;47.946;10.394;2022-09-01T04:23:15;17.20;;;15.40;;
18013;SDS011;9132;47.946;10.394;2022-09-01T04:25:50;15.20;;;13.57;;
18013;SDS011;9132;47.946;10.394;2022-09-01T04:28:18;16.97;;;15.27;;
18013;SDS011;9132;47.946;10.394;2022-09-01T04:30:49;17.33;;;14.70;;
18013;SDS011;9132;47.946;10.394;2022-09-01T04:33:16;16.67;;;15.00;;
18013;SDS011;9132;47.946;10.394;2022-09-01T04:35:44;16.80;;;14.97;;
18013;SDS011;9132;47.946;10.394;2022-09-01T04:38:10;15.97;;;14.23;;
18013;SDS011;9132;47.946;10.394;2022-09-01T04:40:40;16.27;;;13.93;;
18013;SDS011;9132;47.946;10.394;2022-09-01T04:43:06;15.10;;;13.30;;
18013;SDS011;9132;47.946;10.394;2022-09-01T04:45:33;15.10;;;13.43;;
18013;SDS011;9132;47.946;10.394;2022-09-01T04:48:00;15.23;;;12.60;;
18013;SDS011;9132;47.946;10.394;2022-09-01T04:50:27;14.10;;;12.80;;
18013;SDS011;9132;47.946;10.394;2022-09-01T04:52:56;15.10;;;13.60;;
18013;SDS011;9132;47.946;10.394;2022-09-01T04:55:24;15.90;;;13.03;;
18013;SDS011;9132;47.946;10.394;2022-09-01T04:57:50;14.27;;;12.90;;
18013;SDS011;9132;47.946;10.394;2022-09-01T05:00:17;15.97;;;14.27;;
18013;SDS011;9132;47.946;10.394;2022-09-01T05:02:47;14.80;;;13.30;;
18013;SDS011;9132;47.946;10.394;2022-09-01T05:05:16;14.63;;;13.23;;
18013;SDS011;9132;47.946;10.394;2022-09-01T05:07:42;14.77;;;13.43;;
18013;SDS011;9132;47.946;10.394;2022-09-01T05:10:10;14.70;;;13.13;;
18013;SDS011;9132;47.946;10.394;2022-09-01T05:12:36;16.57;;;14.10;;
18013;SDS011;9132;47.946;10.394;2022-09-01T05:15:03;14.70;;;13.20;;
18013;SDS011;9132;47.946;10.394;2022-09-01T05:17:33;15.60;;;13.97;;
18013;SDS011;9132;47.946;10.394;2022-09-01T05:20:03;16.83;;;13.47;;
18013;SDS011;9132;47.946;10.394;2022-09-01T05:22:29;14.83;;;13.33;;
18013;SDS011;9132;47.946;10.394;2022-09-01T05:24:56;16.13;;;14.52;;
18013;SDS011;9132;47.946;10.394;2022-09-01T05:27:37;14.63;;;13.23;;
18013;SDS011;9132;47.946;10.394;2022-09-01T05:30:03;14.50;;;12.87;;
18013;SDS011;9132;47.946;10.394;2022-09-01T05:32:32;14.17;;;12.80;;
18013;SDS011;9132;47.946;10.394;2022-09-01T05:35:01;14.17;;;12.80;;
18013;SDS011;9132;47.946;10.394;2022-09-01T05:37:27;13.17;;;11.90;;
18013;SDS011;9132;47.946;10.394;2022-09-01T05:39:54;13.73;;;12.30;;
18013;SDS011;9132;47.946;10.394;2022-09-01T05:42:20;12.17;;;10.80;;
18013;SDS011;9132;47.946;10.394;2022-09-01T05:44:48;13.53;;;11.83;;
18013;SDS011;9132;47.946;10.394;2022-09-01T05:47:14;11.47;;;10.37;;
18013;SDS011;9132;47.946;10.394;2022-09-01T05:49:40;11.80;;;10.70;;
18013;SDS011;9132;47.946;10.394;2022-09-01T05:52:06;12.27;;;11.10;;
18013;SDS011;9132;47.946;10.394;2022-09-01T05:54:34;13.10;;;11.80;;
18013;SDS011;9132;47.946;10.394;2022-09-01T05:57:02;11.80;;;10.70;;
18013;SDS011;9132;47.946;10.394;2022-09-01T05:59:28;13.50;;;11.17;;
18013;SDS011;9132;47.946;10.394;2022-09-01T06:01:58;11.93;;;10.77;;
18013;SDS011;9132;47.946;10.394;2022-09-01T06:04:24;12.37;;;11.20;;
18013;SDS011;9132;47.946;10.394;2022-09-01T06:06:52;11.83;;;10.67;;
18013;SDS011;9132;47.946;10.394;2022-09-01T06:09:21;11.30;;;10.23;;
18013;SDS011;9132;47.946;10.394;2022-09-01T06:11:47;12.47;;;11.17;;
18013;SDS011;9132;47.946;10.394;2022-09-01T06:14:14;11.90;;;10.80;;
18013;SDS011;9132;47.946;10.394;2022-09-01T06:16:41;11.60;;;10.60;;
18013;SDS011;9132;47.946;10.394;2022-09-01T06:19:09;11.90;;;10.70;;
18013;SDS011;9132;47.946;10.394;2022-09-01T06:21:37;11.10;;;10.10;;
18013;SDS011;9132;47.946;10.394;2022-09-01T06:24:04;11.60;;;10.40;;
18013;SDS011;9132;47.946;10.394;2022-09-01T06:26:32;11.43;;;10.33;;
18013;SDS011;9132;47.946;10.394;2022-09-01T06:28:59;11.17;;;10.13;;
18013;SDS011;9132;47.946;10.394;2022-09-01T06:31:28;11.47;;;10.20;;
18013;SDS011;9132;47.946;10.394;2022-09-01T06:33:58;12.00;;;10.87;;
18013;SDS011;9132;47.946;10.394;2022-09-01T06:36:26;12.13;;;10.80;;
18013;SDS011;9132;47.946;10.394;2022-09-01T06:38:54;11.67;;;10.47;;
18013;SDS011;9132;47.946;10.394;2022-09-01T06:41:20;11.97;;;10.77;;
18013;SDS011;9132;47.946;10.394;2022-09-01T06:43:47;11.20;;;10.10;;
18013;SDS011;9132;47.946;10.394;2022-09-01T06:46:14;11.53;;;10.33;;
18013;SDS011;9132;47.946;10.394;2022-09-01T06:48:41;11.00;;;9.77;;
18013;SDS011;9132;47.946;10.394;2022-09-01T06:51:10;11.63;;;10.60;;
18013;SDS011;9132;47.946;10.394;2022-09-01T06:53:39;12.90;;;11.70;;
18013;SDS011;9132;47.946;10.394;2022-09-01T06:56:06;12.13;;;10.93;;
18013;SDS011;9132;47.946;10.394;2022-09-01T06:58:37;11.40;;;10.30;;
18013;SDS011;9132;47.946;10.394;2022-09-01T07:01:05;12.00;;;10.80;;
18013;SDS011;9132;47.946;10.394;2022-09-01T07:03:35;11.87;;;10.33;;
18013;SDS011;9132;47.946;10.394;2022-09-01T07:06:04;11.60;;;10.50;;
18013;SDS011;9132;47.946;10.394;2022-09-01T07:08:30;10.70;;;9.67;;
18013;SDS011;9132;47.946;10.394;2022-09-01T07:11:05;10.70;;;9.70;;
18013;SDS011;9132;47.946;10.394;2022-09-01T07:13:32;10.30;;;9.35;;
18013;SDS011;9132;47.946;10.394;2022-09-01T07:15:59;10.23;;;9.23;;
18013;SDS011;9132;47.946;10.394;2022-09-01T07:18:28;9.50;;;8.60;;
18013;SDS011;9132;47.946;10.394;2022-09-01T07:20:55;8.95;;;8.15;;
18013;SDS011;9132;47.946;10.394;2022-09-01T07:23:22;9.52;;;8.45;;
18013;SDS011;9132;47.946;10.394;2022-09-01T07:25:50;7.88;;;7.15;;
18013;SDS011;9132;47.946;10.394;2022-09-01T07:28:21;8.55;;;7.75;;
18013;SDS011;9132;47.946;10.394;2022-09-01T07:30:49;8.70;;;7.90;;
18013;SDS011;9132;47.946;10.394;2022-09-01T07:33:17;9.05;;;7.32;;
18013;SDS011;9132;47.946;10.394;2022-09-01T07:35:44;8.40;;;7.60;;
18013;SDS011;9132;47.946;10.394;2022-09-01T07:38:11;8.70;;;7.90;;
18013;SDS011;9132;47.946;10.394;2022-09-01T07:40:38;8.57;;;7.65;;
18013;SDS011;9132;47.946;10.394;2022-09-01T07:43:05;8.68;;;7.88;;
18013;SDS011;9132;47.946;10.394;2022-09-01T07:45:35;8.63;;;7.57;;
18013;SDS011;9132;47.946;10.394;2022-09-01T07:48:04;9.32;;;8.48;;
18013;SDS011;9132;47.946;10.394;2022-09-01T07:50:31;9.25;;;8.35;;
18013;SDS011;9132;47.946;10.394;2022-09-01T07:52:57;8.88;;;8.00;;
18013;SDS011;9132;47.946;10.394;2022-09-01T07:55:24;7.82;;;7.13;;
18013;SDS011;9132;47.946;10.394;2022-09-01T07:57:52;7.90;;;7.20;;
18013;SDS011;9132;47.946;10.394;2022-09-01T08:00:18;8.23;;;7.45;;
18013;SDS011;9132;47.946;10.394;2022-09-01T08:02:47;7.60;;;6.88;;
18013;SDS011;9132;47.946;10.394;2022-09-01T08:05:15;6.95;;;6.35;;
18013;SDS011;9132;47.946;10.394;2022-09-01T08:07:45;7.40;;;6.80;;
18013;SDS011;9132;47.946;10.394;2022-09-01T08:10:13;6.93;;;6.25;;
18013;SDS011;9132;47.946;10.394;2022-09-01T08:12:39;6.95;;;6.25;;
18013;SDS011;9132;47.946;10.394;2022-09-01T08:15:06;6.40;;;5.80;;
18013;SDS011;9132;47.946;10.394;2022-09-01T08:17:32;6.43;;;5.88;;
18013;SDS011;9132;47.946;10.394;2022-09-01T08:20:00;5.82;;;5.13;;
18013;SDS011;9132;47.946;10.394;2022-09-01T08:22:26;6.45;;;5.25;;
18013;SDS011;9132;47.946;10.394;2022-09-01T08:24:53;6.75;;;6.00;;
18013;SDS011;9132;47.946;10.394;2022-09-01T08:27:19;6.50;;;5.95;;
18013;SDS011;9132;47.946;10.394;2022-09-01T08:29:45;5.30;;;4.90;;
18013;SDS011;9132;47.946;10.394;2022-09-01T08:32:12;5.03;;;4.63;;
18013;SDS011;9132;47.946;10.394;2022-09-01T08:34:39;18.83;;;6.38;;
18013;SDS011;9132;47.946;10.394;2022-09-01T08:37:08;4.45;;;4.05;;
18013;SDS011;9132;47.946;10.394;2022-09-01T08:39:35;5.00;;;4.60;;
18013;SDS011;9132;47.946;10.394;2022-09-01T08:42:02;4.57;;;4.18;;
18013;SDS011;9132;47.946;10.394;2022-09-01T08:44:35;5.35;;;4.57;;
18013;SDS011;9132;47.946;10.394;2022-09-01T08:47:02;4.57;;;4.22;;
18013;SDS011;9132;47.946;10.394;2022-09-01T08:49:29;4.55;;;4.15;;
18013;SDS011;9132;47.946;10.394;2022-09-01T08:51:57;5.95;;;4.13;;
18013;SDS011;9132;47.946;10.394;2022-09-01T08:54:28;6.00;;;4.18;;
18013;SDS011;9132;47.946;10.394;2022-09-01T08:56:58;5.72;;;4.63;;
18013;SDS011;9132;47.946;10.394;2022-09-01T08:59:26;5.35;;;4.80;;
18013;SDS011;9132;47.946;10.394;2022-09-01T09:01:54;4.47;;;4.07;;
18013;SDS011;9132;47.946;10.394;2022-09-01T09:04:29;5.70;;;4.28;;
18013;SDS011;9132;47.946;10.394;2022-09-01T09:06:59;5.05;;;4.60;;
18013;SDS011;9132;47.946;10.394;2022-09-01T09:09:32;5.38;;;4.85;;
18013;SDS011;9132;47.946;10.394;2022-09-01T09:12:03;5.55;;;4.75;;
18013;SDS011;9132;47.946;10.394;2022-09-01T09:14:36;5.35;;;4.88;;
18013;SDS011;9132;47.946;10.394;2022-09-01T09:17:08;5.35;;;4.43;;
18013;SDS011;9132;47.946;10.394;2022-09-01T09:19:35;5.40;;;4.97;;
18013;SDS011;9132;47.946;10.394;2022-09-01T09:22:03;5.40;;;4.90;;
18013;SDS011;9132;47.946;10.394;2022-09-01T09:24:32;5.50;;;5.00;;
18013;SDS011;9132;47.946;10.394;2022-09-01T09:27:14;5.97;;;5.30;;
18013;SDS011;9132;47.946;10.394;2022-09-01T09:29:41;5.53;;;4.93;;
18013;SDS011;9132;47.946;10.394;2022-09-01T09:32:08;5.53;;;5.13;;
18013;SDS011;9132;47.946;10.394;2022-09-01T09:34:35;5.75;;;5.30;;
18013;SDS011;9132;47.946;10.394;2022-09-01T09:37:21;5.88;;;5.38;;
18013;SDS011;9132;47.946;10.394;2022-09-01T09:40:02;5.82;;;5.18;;
18013;SDS011;9132;47.946;10.394;2022-09-01T09:42:29;9.23;;;5.72;;
18013;SDS011;9132;47.946;10.394;2022-09-01T09:44:55;5.32;;;4.93;;
18013;SDS011;9132;47.946;10.394;2022-09-01T09:47:33;5.75;;;5.30;;
18013;SDS011;9132;47.946;10.394;2022-09-01T09:50:09;5.57;;;5.13;;
18013;SDS011;9132;47.946;10.394;2022-09-01T09:52:36;5.15;;;4.75;;
18013;SDS011;9132;47.946;10.394;2022-09-01T09:55:05;5.60;;;5.10;;
18013;SDS011;9132;47.946;10.394;2022-09-01T09:57:32;6.32;;;5.82;;
18013;SDS011;9132;47.946;10.394;2022-09-01T10:00:05;6.95;;;6.03;;
18013;SDS011;9132;47.946;10.394;2022-09-01T10:02:34;7.18;;;6.47;;
18013;SDS011;9132;47.946;10.394;2022-09-01T10:05:01;5.93;;;5.38;;
18013;SDS011;9132;47.946;10.394;2022-09-01T10:07:46;5.88;;;5.38;;
18013;SDS011;9132;47.946;10.394;2022-09-01T10:10:26;6.45;;;5.93;;
18013;SDS011;9132;47.946;10.394;2022-09-01T10:12:53;5.95;;;5.45;;
18013;SDS011;9132;47.946;10.394;2022-09-01T10:15:21;6.22;;;5.65;;
18013;SDS011;9132;47.946;10.394;2022-09-01T10:17:48;5.30;;;4.70;;
18013;SDS011;9132;47.946;10.394;2022-09-01T10:20:17;5.80;;;5.32;;
18013;SDS011;9132;47.946;10.394;2022-09-01T10:22:45;6.22;;;5.70;;
18013;SDS011;9132;47.946;10.394;2022-09-01T10:25:13;6.47;;;5.20;;
18013;SDS011;9132;47.946;10.394;2022-09-01T10:27:43;5.50;;;5.00;;
18013;SDS011;9132;47.946;10.394;2022-09-01T10:30:13;6.63;;;5.30;;
18013;SDS011;9132;47.946;10.394;2022-09-01T10:32:41;5.30;;;4.90;;
18013;SDS011;9132;47.946;10.394;2022-09-01T10:35:09;6.55;;;5.95;;
18013;SDS011;9132;47.946;10.394;2022-09-01T10:37:37;6.20;;;5.70;;
18013;SDS011;9132;47.946;10.394;2022-09-01T10:40:12;6.82;;;5.78;;
18013;SDS011;9132;47.946;10.394;2022-09-01T10:42:39;5.97;;;5.32;;
18013;SDS011;9132;47.946;10.394;2022-09-01T10:45:09;6.35;;;5.22;;
18013;SDS011;9132;47.946;10.394;2022-09-01T10:47:42;5.75;;;5.25;;
18013;SDS011;9132;47.946;10.394;2022-09-01T10:50:22;5.88;;;5.38;;
18013;SDS011;9132;47.946;10.394;2022-09-01T10:55:37;6.18;;;5.57;;
18013;SDS011;9132;47.946;10.394;2022-09-01T10:58:18;5.90;;;5.40;;
18013;SDS011;9132;47.946;10.394;2022-09-01T11:00:48;5.68;;;5.18;;
18013;SDS011;9132;47.946;10.394;2022-09-01T11:06:00;5.22;;;4.60;;
18013;SDS011;9132;47.946;10.394;2022-09-01T11:08:39;4.32;;;4.03;;
18013;SDS011;9132;47.946;10.394;2022-09-01T11:11:06;5.50;;;5.00;;
18013;SDS011;9132;47.946;10.394;2022-09-01T11:13:40;5.47;;;4.82;;
18013;SDS011;9132;47.946;10.394;2022-09-01T11:16:25;4.97;;;4.57;;
18013;SDS011;9132;47.946;10.394;2022-09-01T11:18:53;5.75;;;5.05;;
18013;SDS011;9132;47.946;10.394;2022-09-01T11:21:22;5.47;;;5.03;;
18013;SDS011;9132;47.946;10.394;2022-09-01T11:23:49;5.20;;;4.70;;
18013;SDS011;9132;47.946;10.394;2022-09-01T11:29:00;7.30;;;4.97;;
18013;SDS011;9132;47.946;10.394;2022-09-01T11:31:34;4.68;;;4.28;;
18013;SDS011;9132;47.946;10.394;2022-09-01T11:34:07;5.10;;;4.70;;
18013;SDS011;9132;47.946;10.394;2022-09-01T11:36:35;5.28;;;4.10;;
18013;SDS011;9132;47.946;10.394;2022-09-01T11:39:03;4.47;;;4.10;;
18013;SDS011;9132;47.946;10.394;2022-09-01T11:41:31;4.88;;;4.00;;
18013;SDS011;9132;47.946;10.394;2022-09-01T11:43:59;4.68;;;4.28;;
18013;SDS011;9132;47.946;10.394;2022-09-01T11:46:27;4.20;;;3.80;;
18013;SDS011;9132;47.946;10.394;2022-09-01T11:48:55;4.65;;;4.15;;
18013;SDS011;9132;47.946;10.394;2022-09-01T11:51:22;4.35;;;3.95;;
18013;SDS011;9132;47.946;10.394;2022-09-01T11:53:48;4.25;;;3.95;;
18013;SDS011;9132;47.946;10.394;2022-09-01T11:56:16;6.18;;;4.20;;
18013;SDS011;9132;47.946;10.394;2022-09-01T11:58:42;4.28;;;3.30;;
18013;SDS011;9132;47.946;10.394;2022-09-01T12:01:16;4.20;;;3.90;;
18013;SDS011;9132;47.946;10.394;2022-09-01T12:03:43;4.20;;;3.90;;
18013;SDS011;9132;47.946;10.394;2022-09-01T12:06:17;3.97;;;3.67;;
18013;SDS011;9132;47.946;10.394;2022-09-01T12:08:49;4.38;;;4.00;;
18013;SDS011;9132;47.946;10.394;2022-09-01T12:11:17;4.15;;;3.75;;
18013;SDS011;9132;47.946;10.394;2022-09-01T12:13:53;4.78;;;3.20;;
18013;SDS011;9132;47.946;10.394;2022-09-01T12:16:19;4.22;;;3.75;;
18013;SDS011;9132;47.946;10.394;2022-09-01T12:18:46;3.83;;;3.53;;
18013;SDS011;9132;47.946;10.394;2022-09-01T12:21:18;3.70;;;3.40;;
18013;SDS011;9132;47.946;10.394;2022-09-01T12:23:45;3.47;;;3.28;;
18013;SDS011;9132;47.946;10.394;2022-09-01T12:26:13;4.70;;;3.30;;
18013;SDS011;9132;47.946;10.394;2022-09-01T12:28:40;3.60;;;3.17;;
18013;SDS011;9132;47.946;10.394;2022-09-01T12:31:07;3.78;;;3.47;;
18013;SDS011;9132;47.946;10.394;2022-09-01T12:33:37;3.33;;;3.03;;
18013;SDS011;9132;47.946;10.394;2022-09-01T12:36:13;4.45;;;3.30;;
18013;SDS011;9132;47.946;10.394;2022-09-01T12:38:41;3.60;;;3.35;;
18013;SDS011;9132;47.946;10.394;2022-09-01T12:41:21;3.70;;;3.40;;
18013;SDS011;9132;47.946;10.394;2022-09-01T12:43:48;5.05;;;3.40;;
18013;SDS011;9132;47.946;10.394;2022-09-01T12:46:37;4.10;;;3.70;;
18013;SDS011;9132;47.946;10.394;2022-09-01T12:49:15;4.13;;;3.78;;
18013;SDS011;9132;47.946;10.394;2022-09-01T12:51:41;6.07;;;3.70;;
18013;SDS011;9132;47.946;10.394;2022-09-01T12:54:09;7.03;;;3.67;;
18013;SDS011;9132;47.946;10.394;2022-09-01T12:56:36;5.07;;;3.80;;
18013;SDS011;9132;47.946;10.394;2022-09-01T12:59:04;4.03;;;3.67;;
18013;SDS011;9132;47.946;10.394;2022-09-01T13:01:31;4.07;;;3.30;;
18013;SDS011;9132;47.946;10.394;2022-09-01T13:04:05;4.20;;;3.45;;
18013;SDS011;9132;47.946;10.394;2022-09-01T13:06:31;3.83;;;3.53;;
18013;SDS011;9132;47.946;10.394;2022-09-01T13:08:58;4.53;;;3.65;;
18013;SDS011;9132;47.946;10.394;2022-09-01T13:11:25;4.00;;;3.63;;
18013;SDS011;9132;47.946;10.394;2022-09-01T13:13:52;4.07;;;3.45;;
18013;SDS011;9132;47.946;10.394;2022-09-01T13:16:18;3.60;;;3.30;;
18013;SDS011;9132;47.946;10.394;2022-09-01T13:18:44;4.55;;;3.70;;
18013;SDS011;9132;47.946;10.394;2022-09-01T13:21:11;6.25;;;3.50;;
18013;SDS011;9132;47.946;10.394;2022-09-01T13:23:38;2.90;;;2.70;;
18013;SDS011;9132;47.946;10.394;2022-09-01T13:26:04;3.70;;;3.40;;
18013;SDS011;9132;47.946;10.394;2022-09-01T13:28:32;5.40;;;3.80;;
18013;SDS011;9132;47.946;10.394;2022-09-01T13:30:59;3.65;;;3.35;;
18013;SDS011;9132;47.946;10.394;2022-09-01T13:33:29;4.07;;;3.50;;
18013;SDS011;9132;47.946;10.394;2022-09-01T13:35:55;4.88;;;3.55;;
18013;SDS011;9132;47.946;10.394;2022-09-01T13:38:22;4.25;;;3.85;;
18013;SDS011;9132;47.946;10.394;2022-09-01T13:40:49;4.22;;;3.88;;
18013;SDS011;9132;47.946;10.394;2022-09-01T13:43:15;3.92;;;3.63;;
18013;SDS011;9132;47.946;10.394;2022-09-01T13:45:44;4.28;;;3.88;;
18013;SDS011;9132;47.946;10.394;2022-09-01T13:48:10;4.10;;;3.70;;
18013;SDS011;9132;47.946;10.394;2022-09-01T13:50:37;4.07;;;3.78;;
18013;SDS011;9132;47.946;10.394;2022-09-01T13:53:03;4.40;;;4.10;;
18013;SDS011;9132;47.946;10.394;2022-09-01T13:55:31;5.85;;;4.25;;
18013;SDS011;9132;47.946;10.394;2022-09-01T13:57:57;4.60;;;4.20;;
18013;SDS011;9132;47.946;10.394;2022-09-01T14:00:24;5.20;;;3.97;;
18013;SDS011;9132;47.946;10.394;2022-09-01T14:02:55;4.35;;;3.95;;
18013;SDS011;9132;47.946;10.394;2022-09-01T14:05:24;3.80;;;3.50;;
18013;SDS011;9132;47.946;10.394;2022-09-01T14:07:51;3.80;;;3.50;;
18013;SDS011;9132;47.946;10.394;2022-09-01T14:10:18;4.70;;;3.45;;
18013;SDS011;9132;47.946;10.394;2022-09-01T14:12:45;3.83;;;3.53;;
18013;SDS011;9132;47.946;10.394;2022-09-01T14:15:12;3.53;;;3.22;;
18013;SDS011;9132;47.946;10.394;2022-09-01T14:17:38;3.65;;;3.35;;
18013;SDS011;9132;47.946;10.394;2022-09-01T14:20:07;4.03;;;3.58;;
18013;SDS011;9132;47.946;10.394;2022-09-01T14:22:34;3.38;;;3.05;;
18013;SDS011;9132;47.946;10.394;2022-09-01T14:25:01;3.38;;;2.90;;
18013;SDS011;9132;47.946;10.394;2022-09-01T14:27:27;3.40;;;3.10;;
18013;SDS011;9132;47.946;10.394;2022-09-01T14:29:53;2.97;;;2.78;;
18013;SDS011;9132;47.946;10.394;2022-09-01T14:32:19;2.75;;;2.55;;
18013;SDS011;9132;47.946;10.394;2022-09-01T14:34:46;3.42;;;2.70;;
18013;SDS011;9132;47.946;10.394;2022-09-01T14:37:14;3.03;;;2.83;;
18013;SDS011;9132;47.946;10.394;2022-09-01T14:39:41;5.70;;;3.22;;
18013;SDS011;9132;47.946;10.394;2022-09-01T14:42:07;4.13;;;2.78;;
18013;SDS011;9132;47.946;10.394;2022-09-01T14:44:35;3.20;;;2.70;;
18013;SDS011;9132;47.946;10.394;2022-09-01T14:47:02;3.58;;;2.90;;
18013;SDS011;9132;47.946;10.394;2022-09-01T14:49:30;3.25;;;2.70;;
18013;SDS011;9132;47.946;10.394;2022-09-01T14:51:56;2.85;;;2.45;;